Time;durP1;ratioP1;P1;durP2;ratioP2;P2;SDS_P1;SDS_P2;PMS_P1;PMS_P2;Temp;Humidity;BMP_temperature;BMP_pressure;BME280_temperature;BME280_humidity;BME280_pressure;Samples;Min_cycle;Max_cycle;Signal;HPM_P1;HPM_P2
2022/05/09 00:01:58;;;;;;;13.80;11.40;;;;;;;13.74;100.00;99753.08;104741;1277;61968;-75
2022/05/09 00:04:25;;;;;;;14.10;10.20;;;;;;;13.71;100.00;99749.59;104903;1274;75485;-75
2022/05/09 00:06:51;;;;;;;12.30;11.10;;;;;;;13.68;100.00;99750.80;104799;1275;61611;-75
2022/05/09 00:09:18;;;;;;;12.70;11.50;;;;;;;13.66;100.00;99756.69;104918;1274;61272;-75
2022/05/09 00:11:45;;;;;;;12.30;11.10;;;;;;;13.65;100.00;99760.69;104902;1274;61227;-75
2022/05/09 00:14:12;;;;;;;12.30;11.10;;;;;;;13.62;100.00;99759.96;104916;1274;61927;-75
2022/05/09 00:16:40;;;;;;;13.90;12.50;;;;;;;13.61;100.00;99757.88;104925;1274;76464;-75
2022/05/09 00:19:09;;;;;;;12.80;11.70;;;;;;;13.60;100.00;99751.85;104924;1274;69288;-76
2022/05/09 00:21:38;;;;;;;13.50;12.30;;;;;;;13.60;100.00;99753.35;104942;1274;73490;-75
2022/05/09 00:24:08;;;;;;;15.30;13.40;;;;;;;13.58;100.00;99747.17;104916;1274;61284;-75
2022/05/09 00:26:34;;;;;;;15.80;14.20;;;;;;;13.58;100.00;99752.18;104937;1274;61298;-76
2022/05/09 00:29:03;;;;;;;15.10;13.60;;;;;;;13.58;100.00;99752.19;104892;1274;61278;-74
2022/05/09 00:31:30;;;;;;;16.80;13.60;;;;;;;13.58;100.00;99752.55;104932;1274;70090;-75
2022/05/09 00:33:57;;;;;;;14.80;13.40;;;;;;;13.57;100.00;99752.27;104936;1274;73203;-75
2022/05/09 00:36:24;;;;;;;14.20;12.90;;;;;;;13.53;100.00;99757.02;104862;1274;61384;-74
2022/05/09 00:38:51;;;;;;;17.10;14.20;;;;;;;13.46;100.00;99757.64;104924;1274;61427;-74
2022/05/09 00:44:11;;;;;;;16.80;15.10;;;;;;;13.32;100.00;99760.18;104883;1274;70147;-76
2022/05/09 00:46:40;;;;;;;18.20;15.70;;;;;;;13.28;100.00;99759.55;104827;1274;74253;-75
2022/05/09 00:49:40;;;;;;;16.50;14.70;;;;;;;13.25;100.00;99757.96;104975;1274;61403;-74
2022/05/09 00:52:19;;;;;;;20.20;18.20;;;;;;;13.23;100.00;99760.36;104731;1277;61229;-75
2022/05/09 00:54:49;;;;;;;18.00;16.30;;;;;;;13.22;100.00;99762.45;104879;1274;76377;-74
2022/05/09 00:57:32;;;;;;;17.60;15.90;;;;;;;13.21;100.00;99766.97;105069;1274;69445;-74
2022/05/09 01:00:03;;;;;;;20.00;18.10;;;;;;;13.19;100.00;99765.48;104916;1274;73644;-74
2022/05/09 01:02:31;;;;;;;20.20;18.00;;;;;;;13.17;100.00;99765.98;104939;1274;61291;-75
2022/05/09 01:04:59;;;;;;;22.90;18.50;;;;;;;13.15;100.00;99766.66;104977;1274;61836;-74
2022/05/09 01:07:27;;;;;;;19.90;17.90;;;;;;;13.12;100.00;99769.48;104954;1274;73518;-75
2022/05/09 01:09:53;;;;;;;18.70;16.70;;;;;;;13.10;100.00;99767.29;104839;1274;69357;-77
2022/05/09 01:12:25;;;;;;;18.60;16.60;;;;;;;13.08;100.00;99765.44;104899;1274;73251;-75
2022/05/09 01:14:52;;;;;;;18.30;16.50;;;;;;;13.09;100.00;99767.21;104901;1274;61279;-75
2022/05/09 01:17:23;;;;;;;17.50;15.70;;;;;;;13.10;100.00;99769.98;104950;1274;61795;-74
2022/05/09 01:19:53;;;;;;;17.60;14.90;;;;;;;13.12;100.00;99768.26;104967;1274;75303;-74
2022/05/09 01:22:31;;;;;;;16.70;15.10;;;;;;;13.12;100.00;99772.88;104920;1274;69197;-74
2022/05/09 01:25:03;;;;;;;18.10;16.30;;;;;;;13.11;100.00;99773.09;104956;1274;74305;-74
2022/05/09 01:27:31;;;;;;;17.60;15.80;;;;;;;13.11;100.00;99776.69;104577;1274;62026;-75
2022/05/09 01:30:12;;;;;;;21.80;17.90;;;;;;;13.11;100.00;99781.67;104557;1274;61355;-76
2022/05/09 01:32:50;;;;;;;19.40;17.40;;;;;;;13.10;100.00;99782.81;104869;1274;76126;-74
2022/05/09 01:35:30;;;;;;;20.20;17.20;;;;;;;13.09;100.00;99784.14;104987;1274;70148;-74
2022/05/09 01:38:23;;;;;;;;;;;;;;;13.08;100.00;99788.49;104951;1272;73171;-75
2022/05/09 01:40:49;;;;;;;20.30;16.90;;;;;;;13.07;100.00;99786.41;104883;1274;61291;-74
2022/05/09 01:43:36;;;;;;;20.00;16.40;;;;;;;13.07;100.00;99786.44;104902;1274;61247;-74
2022/05/09 01:46:06;;;;;;;16.80;15.10;;;;;;;13.06;100.00;99786.10;104972;1274;76402;-75
2022/05/09 01:49:34;;;;;;;18.50;15.80;;;;;;;13.06;100.00;99782.52;104975;1274;70338;-75
2022/05/09 01:51:29;;;;;;;15.80;14.10;;;;;;;13.07;100.00;99779.27;104791;1274;74315;-73
2022/05/09 01:53:56;;;;;;;16.40;14.70;;;;;;;13.07;100.00;99775.20;104925;1274;61373;-74
2022/05/09 01:56:32;;;;;;;15.90;14.30;;;;;;;13.06;100.00;99774.86;104937;1274;61256;-74
2022/05/09 01:59:00;;;;;;;17.20;15.50;;;;;;;13.05;100.00;99771.92;104820;1274;75186;-74
2022/05/09 02:01:34;;;;;;;16.90;15.20;;;;;;;13.03;100.00;99769.39;104909;1274;69222;-76
2022/05/09 02:04:00;;;;;;;16.60;14.80;;;;;;;12.99;100.00;99773.02;104994;1274;73162;-75
2022/05/09 02:06:27;;;;;;;16.80;15.10;;;;;;;12.95;100.00;99771.48;104915;1274;61387;-75
2022/05/09 02:08:53;;;;;;;17.90;16.10;;;;;;;12.91;100.00;99769.98;104693;1274;61305;-75
2022/05/09 02:11:19;;;;;;;16.90;15.10;;;;;;;12.86;100.00;99770.98;104913;1274;61357;-74
2022/05/09 02:13:46;;;;;;;17.50;15.80;;;;;;;12.80;100.00;99772.96;104690;1274;61496;-74
2022/05/09 02:16:13;;;;;;;16.60;14.90;;;;;;;12.76;100.00;99772.36;104901;1274;61907;-74
2022/05/09 02:18:40;;;;;;;15.70;14.00;;;;;;;12.71;100.00;99776.91;104932;1274;61310;-75
2022/05/09 02:21:07;;;;;;;16.30;14.70;;;;;;;12.66;100.00;99781.14;104903;1272;61913;-75
2022/05/09 02:23:34;;;;;;;18.20;16.30;;;;;;;12.62;100.00;99782.86;104888;1274;74273;-76
2022/05/09 02:26:02;;;;;;;18.30;16.50;;;;;;;12.58;100.00;99779.73;104955;1274;70264;-75
2022/05/09 02:28:29;;;;;;;16.70;15.00;;;;;;;12.55;100.00;99779.38;104944;1274;73220;-75
2022/05/09 02:30:56;;;;;;;19.70;16.50;;;;;;;12.51;100.00;99781.35;104937;1274;61423;-75
2022/05/09 02:33:23;;;;;;;18.70;16.90;;;;;;;12.47;100.00;99780.55;104903;1273;61166;-76
2022/05/09 02:35:50;;;;;;;17.10;15.40;;;;;;;12.44;100.00;99783.08;104923;1274;76086;-75
2022/05/09 02:38:18;;;;;;;18.00;16.20;;;;;;;12.40;100.00;99786.38;104932;1274;69391;-76
2022/05/09 02:40:45;;;;;;;17.10;15.30;;;;;;;12.36;100.00;99785.55;104982;1274;73177;-75
2022/05/09 02:43:12;;;;;;;18.10;16.30;;;;;;;12.31;100.00;99790.27;104969;1274;61413;-75
2022/05/09 02:45:39;;;;;;;17.00;15.40;;;;;;;12.27;100.00;99793.94;104926;1274;62104;-75
2022/05/09 02:48:06;;;;;;;16.20;14.60;;;;;;;12.20;100.00;99797.05;104932;1274;76312;-75
2022/05/09 02:50:32;;;;;;;16.00;14.30;;;;;;;12.08;100.00;99795.77;104660;1274;70273;-74
2022/05/09 02:52:59;;;;;;;18.40;16.40;;;;;;;11.99;100.00;99798.67;104884;1274;61323;-73
2022/05/09 02:55:25;;;;;;;19.80;17.80;;;;;;;11.95;100.00;99799.58;104899;1274;61452;-76
2022/05/09 02:57:52;;;;;;;18.50;16.60;;;;;;;11.95;100.00;99802.77;104962;1274;61374;-75
2022/05/09 03:00:25;;;;;;;18.40;16.60;;;;;;;11.95;100.00;99804.05;104932;1274;75104;-74
2022/05/09 03:05:41;;;;;;;18.70;16.70;;;;;;;11.94;100.00;99800.34;104932;1274;73387;-74
2022/05/09 03:08:09;;;;;;;21.10;18.90;;;;;;;11.94;100.00;99801.81;104963;1274;61297;-75
2022/05/09 03:10:37;;;;;;;21.00;18.80;;;;;;;11.91;100.00;99802.34;104830;1274;61346;-75
2022/05/09 03:13:06;;;;;;;19.20;17.20;;;;;;;11.89;100.00;99808.34;104935;1274;75148;-76
2022/05/09 03:15:37;;;;;;;22.10;19.60;;;;;;;11.85;100.00;99818.48;104939;1274;69487;-75
2022/05/09 03:18:04;;;;;;;21.60;19.40;;;;;;;11.83;100.00;99823.94;104886;1274;74428;-76
2022/05/09 03:20:31;;;;;;;20.40;18.30;;;;;;;11.79;100.00;99826.13;104883;1274;61353;-74
2022/05/09 03:22:57;;;;;;;19.50;17.30;;;;;;;11.76;100.00;99828.80;104938;1274;61391;-74
2022/05/09 03:25:24;;;;;;;18.30;16.50;;;;;;;11.75;100.00;99830.14;104905;1274;61387;-75
2022/05/09 03:27:50;;;;;;;20.10;16.10;;;;;;;11.75;100.00;99826.41;105024;1274;70598;-76
2022/05/09 03:30:18;;;;;;;19.70;17.70;;;;;;;11.76;100.00;99830.27;104873;1274;74230;-76
2022/05/09 03:32:47;;;;;;;18.80;17.00;;;;;;;11.76;100.00;99830.23;105010;1272;61363;-75
2022/05/09 03:35:14;;;;;;;17.30;15.00;;;;;;;11.76;100.00;99831.29;104940;1274;61288;-75
2022/05/09 03:37:41;;;;;;;17.20;15.50;;;;;;;11.87;100.00;99833.34;104972;1273;76561;-76
2022/05/09 03:40:09;;;;;;;17.40;15.70;;;;;;;11.98;100.00;99840.39;104954;1274;69151;-74
2022/05/09 03:42:35;;;;;;;16.30;14.50;;;;;;;12.04;100.00;99838.43;105030;1274;74348;-74
2022/05/09 03:45:04;;;;;;;16.10;14.50;;;;;;;12.05;100.00;99838.72;104959;1272;61415;-75
2022/05/09 03:47:30;;;;;;;17.50;14.20;;;;;;;12.10;100.00;99843.25;104992;1274;61356;-76
2022/05/09 03:49:57;;;;;;;17.40;15.40;;;;;;;12.14;100.00;99849.25;104945;1274;75476;-75
2022/05/09 03:52:24;;;;;;;15.20;13.80;;;;;;;12.18;100.00;99852.38;104976;1273;69086;-73
2022/05/09 03:54:51;;;;;;;14.40;12.90;;;;;;;12.23;100.00;99849.77;104948;1274;74672;-74
2022/05/09 03:57:18;;;;;;;14.30;13.00;;;;;;;12.28;100.00;99850.52;104931;1273;61356;-76
2022/05/09 03:59:44;;;;;;;14.90;13.10;;;;;;;12.34;100.00;99854.24;104971;1274;61240;-75
2022/05/09 04:02:11;;;;;;;14.00;12.60;;;;;;;12.40;100.00;99853.38;104830;1274;73321;-74
2022/05/09 04:04:37;;;;;;;14.40;13.00;;;;;;;12.46;100.00;99853.56;104948;1274;61275;-75
2022/05/09 04:07:04;;;;;;;13.60;11.70;;;;;;;12.52;100.00;99854.40;104947;1274;61326;-74
2022/05/09 04:09:31;;;;;;;12.20;10.90;;;;;;;12.60;100.00;99853.59;104934;1273;61250;-76
2022/05/09 04:11:58;;;;;;;12.30;11.10;;;;;;;12.68;100.00;99850.77;105029;1274;61257;-75
2022/05/09 04:17:11;;;;;;;12.70;11.40;;;;;;;12.86;100.00;99847.66;104961;1272;70430;-74
2022/05/09 04:19:38;;;;;;;13.10;11.70;;;;;;;12.96;100.00;99850.95;104897;1273;74558;-75
2022/05/09 04:22:06;;;;;;;16.10;12.50;;;;;;;13.07;100.00;99847.40;104946;1273;61316;-76
2022/05/09 04:24:33;;;;;;;14.00;12.10;;;;;;;13.18;100.00;99848.37;104977;1274;61278;-75
2022/05/09 04:27:00;;;;;;;13.20;11.80;;;;;;;13.28;100.00;99849.00;104905;1274;73768;-75
2022/05/09 04:29:27;;;;;;;13.20;11.90;;;;;;;13.41;100.00;99849.54;104827;1274;69181;-76
2022/05/09 04:31:54;;;;;;;12.50;11.30;;;;;;;13.54;100.00;99850.11;104932;1274;73145;-75
2022/05/09 04:34:21;;;;;;;14.80;12.00;;;;;;;13.69;100.00;99851.09;104948;1274;61366;-76
2022/05/09 04:36:47;;;;;;;14.40;12.40;;;;;;;13.84;100.00;99852.59;104977;1272;61367;-75
2022/05/09 04:39:15;;;;;;;13.50;12.00;;;;;;;13.94;100.00;99855.38;104849;1274;61388;-76
2022/05/09 04:41:42;;;;;;;13.40;12.20;;;;;;;14.02;100.00;99856.05;104913;1274;70377;-75
2022/05/09 04:44:09;;;;;;;12.70;11.40;;;;;;;14.15;100.00;99855.16;104951;1273;73331;-75
2022/05/09 04:46:35;;;;;;;12.40;11.00;;;;;;;14.33;100.00;99858.27;104949;1274;61297;-77
2022/05/09 04:49:03;;;;;;;11.90;10.70;;;;;;;14.48;100.00;99856.31;104971;1273;61259;-76
2022/05/09 04:51:29;;;;;;;14.80;11.10;;;;;;;14.75;100.00;99856.23;104965;1274;76431;-76
2022/05/09 04:53:56;;;;;;;12.50;10.90;;;;;;;15.37;100.00;99859.27;104862;1274;67375;-75
2022/05/09 04:56:22;;;;;;;11.00;9.90;;;;;;;15.70;100.00;99862.08;104955;1274;61370;-75
2022/05/09 04:58:49;;;;;;;13.10;10.20;;;;;;;16.19;100.00;99862.34;104954;1274;61283;-75
2022/05/09 05:01:15;;;;;;;12.00;10.20;;;;;;;16.36;100.00;99865.75;104978;1274;61400;-76
2022/05/09 05:03:42;;;;;;;11.60;10.40;;;;;;;16.94;98.91;99868.25;104947;1273;75310;-75
2022/05/09 05:06:09;;;;;;;13.60;10.70;;;;;;;17.45;96.16;99870.79;104925;1274;61206;-74
2022/05/09 05:08:35;;;;;;;12.00;10.80;;;;;;;17.92;93.13;99873.23;104952;1273;61246;-76
2022/05/09 05:11:03;;;;;;;12.10;9.70;;;;;;;18.26;90.43;99876.83;105012;1274;61380;-76
2022/05/09 05:13:33;;;;;;;10.40;9.30;;;;;;;18.55;89.32;99875.09;105006;1274;62045;-75
2022/05/09 05:16:00;;;;;;;11.10;10.00;;;;;;;18.87;87.49;99875.77;104990;1274;74575;-74
2022/05/09 05:18:28;;;;;;;9.60;8.70;;;;;;;19.19;85.54;99879.84;104966;1274;69483;-74
2022/05/09 05:20:55;;;;;;;9.90;8.20;;;;;;;19.36;82.06;99878.44;105003;1274;72921;-76
2022/05/09 05:23:22;;;;;;;9.00;8.00;;;;;;;19.40;80.76;99885.29;105001;1274;61294;-75
2022/05/09 05:25:48;;;;;;;8.30;7.50;;;;;;;19.67;81.08;99882.70;105045;1274;61324;-77
2022/05/09 05:28:16;;;;;;;7.90;7.10;;;;;;;20.15;80.28;99880.91;105155;1271;74859;-78
2022/05/09 05:30:44;;;;;;;8.20;7.40;;;;;;;20.44;79.39;99883.95;105010;1271;69231;-75
2022/05/09 05:33:11;;;;;;;8.00;7.30;;;;;;;20.33;79.14;99881.84;105107;1271;74422;-79
2022/05/09 05:35:37;;;;;;;7.60;6.80;;;;;;;20.32;77.65;99887.05;105391;1271;61288;-79
2022/05/09 05:38:04;;;;;;;11.60;7.90;;;;;;;20.45;76.81;99891.08;105240;1274;61202;-75
2022/05/09 05:40:30;;;;;;;10.10;6.70;;;;;;;20.65;74.29;99892.13;105143;1274;76234;-75
2022/05/09 05:42:57;;;;;;;9.30;6.80;;;;;;;20.66;73.53;99892.66;105017;1274;61265;-75
2022/05/09 05:45:24;;;;;;;9.30;7.70;;;;;;;20.83;72.63;99893.83;105038;1274;61488;-74
2022/05/09 05:47:51;;;;;;;8.10;6.80;;;;;;;20.75;73.90;99898.14;104889;1274;61310;-74
2022/05/09 05:50:21;;;;;;;8.30;7.40;;;;;;;21.21;72.27;99895.61;105014;1274;61314;-75
2022/05/09 05:52:48;;;;;;;10.30;6.50;;;;;;;21.51;71.13;99897.71;105013;1274;75727;-74
2022/05/09 05:55:18;;;;;;;9.10;7.30;;;;;;;21.37;70.72;99897.46;105008;1273;70119;-73
2022/05/09 05:57:46;;;;;;;8.30;7.30;;;;;;;21.30;70.83;99899.55;104890;1273;73243;-75
2022/05/09 06:00:18;;;;;;;8.80;6.60;;;;;;;21.71;69.96;99898.62;105019;1274;61307;-74
2022/05/09 06:02:45;;;;;;;8.50;7.10;;;;;;;22.10;67.98;99894.92;105001;1274;61156;-74
2022/05/09 06:05:14;;;;;;;8.80;7.00;;;;;;;22.27;66.98;99894.67;105080;1274;75420;-73
2022/05/09 06:07:41;;;;;;;7.20;6.10;;;;;;;22.44;64.81;99895.73;105080;1274;70075;-73
2022/05/09 06:10:11;;;;;;;9.80;7.10;;;;;;;22.51;63.36;99898.07;104989;1274;71652;-74
2022/05/09 06:12:38;;;;;;;7.00;6.30;;;;;;;22.67;62.08;99895.52;105043;1274;61342;-74
2022/05/09 06:15:25;;;;;;;9.50;6.60;;;;;;;22.66;61.55;99896.52;105009;1272;61282;-77
2022/05/09 06:17:53;;;;;;;8.30;6.00;;;;;;;22.65;62.37;99900.77;105006;1273;75330;-76
2022/05/09 06:20:22;;;;;;;6.30;5.00;;;;;;;22.46;62.23;99900.44;105030;1274;70301;-73
2022/05/09 06:22:49;;;;;;;5.50;5.00;;;;;;;22.29;61.25;99901.04;105146;1273;73227;-76
2022/05/09 06:25:18;;;;;;;5.20;4.50;;;;;;;22.03;60.37;99901.29;104939;1271;61324;-70
2022/05/09 06:27:46;;;;;;;4.90;4.10;;;;;;;22.07;60.06;99906.33;105037;1271;61227;-71
2022/05/09 06:30:15;;;;;;;4.80;4.30;;;;;;;21.91;60.07;99904.30;104844;1271;76484;-71
2022/05/09 06:32:42;;;;;;;4.60;4.20;;;;;;;22.00;59.73;99907.04;105065;1271;61380;-70
2022/05/09 06:35:14;;;;;;;6.20;4.90;;;;;;;22.11;59.56;99908.81;105027;1271;73135;-71
2022/05/09 06:37:42;;;;;;;5.00;4.50;;;;;;;22.24;59.56;99908.95;105001;1271;61201;-70
2022/05/09 06:40:10;;;;;;;5.10;4.60;;;;;;;22.37;59.15;99911.96;104937;1271;61439;-71
2022/05/09 06:42:37;;;;;;;6.10;4.40;;;;;;;22.36;58.41;99910.78;104993;1271;76486;-71
2022/05/09 06:45:05;;;;;;;7.20;4.30;;;;;;;22.34;58.23;99910.80;105021;1271;69300;-70
2022/05/09 06:47:31;;;;;;;4.00;3.60;;;;;;;22.41;59.10;99905.20;105017;1271;72948;-70
2022/05/09 06:50:00;;;;;;;4.80;3.80;;;;;;;22.56;58.48;99910.20;104906;1271;61279;-70
2022/05/09 06:52:26;;;;;;;6.10;4.00;;;;;;;22.59;57.29;99906.65;104887;1271;61316;-71
2022/05/09 06:54:53;;;;;;;5.90;4.10;;;;;;;22.40;55.98;99911.09;105031;1271;61278;-70
2022/05/09 06:57:19;;;;;;;5.10;4.60;;;;;;;22.18;55.99;99911.34;104923;1271;61262;-72
2022/05/09 06:59:47;;;;;;;4.80;4.30;;;;;;;22.02;56.40;99913.45;104878;1271;73674;-73
2022/05/09 07:02:14;;;;;;;5.80;4.70;;;;;;;21.90;56.46;99913.04;104819;1271;61313;-70
2022/05/09 07:04:41;;;;;;;6.30;5.70;;;;;;;21.70;57.13;99916.55;105024;1271;61173;-71
2022/05/09 07:07:08;;;;;;;6.30;4.50;;;;;;;21.63;57.00;99913.89;105032;1271;75269;-70
2022/05/09 07:09:34;;;;;;;6.60;5.20;;;;;;;21.44;57.90;99909.27;104847;1271;69137;-72
2022/05/09 07:12:01;;;;;;;7.00;4.30;;;;;;;21.23;57.25;99912.21;105011;1271;61258;-71
2022/05/09 07:14:28;;;;;;;5.20;4.20;;;;;;;20.98;57.74;99919.31;104999;1271;61400;-71
2022/05/09 07:16:54;;;;;;;4.50;4.10;;;;;;;20.77;57.29;99916.05;105044;1271;62047;-71
2022/05/09 07:19:21;;;;;;;5.20;4.60;;;;;;;20.62;57.60;99914.44;105017;1270;61311;-70
2022/05/09 07:21:47;;;;;;;4.60;3.90;;;;;;;20.48;57.55;99914.06;105038;1271;69078;-71
2022/05/09 07:24:14;;;;;;;7.40;4.80;;;;;;;20.33;56.75;99916.86;105017;1271;61186;-70
2022/05/09 07:26:41;;;;;;;5.70;3.80;;;;;;;20.14;55.80;99917.94;104800;1271;61403;-72
2022/05/09 07:29:09;;;;;;;6.30;4.70;;;;;;;20.00;57.30;99919.38;105003;1271;62013;-70
2022/05/09 07:31:35;;;;;;;4.90;4.00;;;;;;;20.04;57.76;99920.51;105042;1271;76755;-71
2022/05/09 07:34:02;;;;;;;7.10;4.70;;;;;;;20.07;58.96;99918.91;104880;1271;233149;-70
2022/05/09 07:36:29;;;;;;;5.50;4.70;;;;;;;20.16;58.24;99915.58;105033;1271;74405;-72
2022/05/09 07:38:55;;;;;;;6.70;5.30;;;;;;;20.21;58.40;99915.86;104914;1271;61284;-70
2022/05/09 07:41:22;;;;;;;10.20;5.90;;;;;;;20.27;58.52;99913.70;105062;1271;61283;-71
2022/05/09 07:43:50;;;;;;;6.90;5.70;;;;;;;20.33;58.81;99915.81;104995;1271;76199;-72
2022/05/09 07:46:16;;;;;;;8.50;5.40;;;;;;;20.43;59.00;99912.19;104996;1271;68639;-72
2022/05/09 07:48:43;;;;;;;10.30;6.10;;;;;;;20.60;60.27;99912.92;105075;1270;61964;-71
2022/05/09 07:51:09;;;;;;;10.20;5.60;;;;;;;20.81;59.89;99911.72;104913;1271;61292;-70
2022/05/09 07:53:36;;;;;;;5.80;5.00;;;;;;;20.92;58.19;99909.72;105084;1271;61805;-71
2022/05/09 07:56:04;;;;;;;6.20;4.90;;;;;;;20.90;57.93;99910.15;105007;1271;61404;-71
2022/05/09 07:58:32;;;;;;;10.50;5.90;;;;;;;21.08;58.08;99912.00;104936;1271;70730;-71
2022/05/09 08:00:59;;;;;;;5.00;3.80;;;;;;;21.23;56.48;99913.21;105010;1271;74657;-72
2022/05/09 08:03:29;;;;;;;11.60;5.60;;;;;;;21.26;55.89;99914.80;104900;1271;61353;-72
2022/05/09 08:05:58;;;;;;;5.30;3.50;;;;;;;21.36;53.81;99909.80;105034;1271;61141;-70
2022/05/09 08:08:25;;;;;;;7.00;4.70;;;;;;;21.36;53.12;99903.14;105065;1271;75181;-71
2022/05/09 08:10:51;;;;;;;6.10;4.50;;;;;;;21.47;53.86;99904.27;105055;1271;70284;-70
2022/05/09 08:13:19;;;;;;;4.40;3.30;;;;;;;21.64;54.05;99906.38;105031;1271;72719;-71
2022/05/09 08:15:47;;;;;;;7.00;3.70;;;;;;;21.76;51.79;99910.64;105042;1271;61400;-72
2022/05/09 08:18:14;;;;;;;5.00;3.40;;;;;;;21.49;49.88;99913.48;105198;1271;61265;-71
2022/05/09 08:20:45;;;;;;;3.20;2.90;;;;;;;21.30;50.26;99912.08;105043;1271;76501;-71
2022/05/09 08:23:16;;;;;;;5.00;3.10;;;;;;;21.14;50.96;99913.02;105034;1271;69997;-71
2022/05/09 08:25:44;;;;;;;4.80;3.70;;;;;;;21.01;50.75;99919.13;104990;1271;71170;-71
2022/05/09 08:28:12;;;;;;;4.30;3.30;;;;;;;20.86;51.01;99917.19;105036;1271;61292;-72
2022/05/09 08:30:39;;;;;;;3.80;3.20;;;;;;;20.75;51.79;99918.04;105112;1271;61278;-71
2022/05/09 08:33:15;;;;;;;3.70;3.30;;;;;;;20.66;51.83;99921.41;104871;1271;74687;-71
2022/05/09 08:35:43;;;;;;;5.00;3.50;;;;;;;20.57;51.96;99925.83;105046;1271;68595;-70
2022/05/09 08:38:11;;;;;;;7.20;4.50;;;;;;;20.44;52.34;99925.13;104982;1271;73416;-70
2022/05/09 08:41:22;;;;;;;5.50;3.80;;;;;;;20.34;52.15;99926.55;104802;1274;61412;-71
2022/05/09 08:43:55;;;;;;;4.40;3.50;;;;;;;20.31;52.46;99927.73;104405;1279;61296;-70
2022/05/09 08:47:04;;;;;;;6.30;3.70;;;;;;;20.39;52.09;99929.13;104448;1280;75652;-70
2022/05/09 08:49:51;;;;;;;6.30;3.70;;;;;;;20.50;51.63;99925.05;103666;1285;66556;-69
2022/05/09 08:52:31;;;;;;;7.70;4.00;;;;;;;20.89;51.79;99923.21;103590;1285;73249;-71
2022/05/09 08:54:57;;;;;;;5.50;3.00;;;;;;;21.40;52.17;99920.44;103431;1285;61431;-70
2022/05/09 08:57:42;;;;;;;3.40;2.90;;;;;;;21.71;50.89;99923.27;103814;1285;61317;-70
2022/05/09 09:00:18;;;;;;;4.20;2.70;;;;;;;21.82;49.85;99923.67;103750;1285;75401;-71
2022/05/09 09:02:54;;;;;;;3.90;2.70;;;;;;;21.61;46.72;99924.06;103904;1285;69265;-72
2022/05/09 09:05:25;;;;;;;5.60;2.80;;;;;;;21.46;46.15;99925.19;103805;1285;75171;-70
2022/05/09 09:08:23;;;;;;;7.40;3.00;;;;;;;21.43;46.50;99922.56;103861;1285;61443;-70
2022/05/09 09:11:32;;;;;;;13.20;4.60;;;;;;;21.29;45.78;99925.50;103817;1285;61208;-71
2022/05/09 09:14:01;;;;;;;6.20;3.00;;;;;;;21.21;45.53;99927.03;103348;1290;74592;-70
2022/05/09 09:16:27;;;;;;;4.30;2.80;;;;;;;21.14;45.76;99931.88;103226;1291;70208;-70
2022/05/09 09:19:05;;;;;;;44.30;11.00;;;;;;;21.19;46.57;99925.94;103713;1285;61441;-70
2022/05/09 09:21:58;;;;;;;4.40;3.20;;;;;;;21.57;47.65;99926.05;103803;1285;61224;-72
2022/05/09 09:24:45;;;;;;;5.60;2.60;;;;;;;22.08;44.82;99931.70;103856;1285;61388;-72
2022/05/09 09:27:33;;;;;;;3.50;2.60;;;;;;;22.21;44.43;99925.87;104187;1280;76199;-70
2022/05/09 09:30:10;;;;;;;4.60;2.90;;;;;;;22.24;43.79;99929.02;104369;1279;70765;-70
2022/05/09 09:32:40;;;;;;;5.70;2.60;;;;;;;22.26;43.37;99928.69;104342;1279;73108;-71
2022/05/09 09:35:24;;;;;;;5.30;2.50;;;;;;;22.56;43.66;99925.11;104369;1279;61314;-71
2022/05/09 09:38:07;;;;;;;3.40;3.00;;;;;;;22.91;42.77;99923.27;104431;1280;61202;-70
2022/05/09 09:40:34;;;;;;;5.40;2.90;;;;;;;22.71;41.86;99924.67;104341;1279;74897;-71
2022/05/09 09:43:01;;;;;;;4.40;2.70;;;;;;;22.64;42.80;99921.56;104386;1279;68620;-71
2022/05/09 09:45:40;;;;;;;12.80;5.50;;;;;;;22.73;43.24;99918.21;104394;1279;74244;-70
2022/05/09 09:48:08;;;;;;;19.60;8.10;;;;;;;22.62;42.68;99922.66;104433;1280;61163;-70
2022/05/09 09:50:36;;;;;;;5.60;2.80;;;;;;;22.38;42.88;99922.02;104634;1274;61346;-70
2022/05/09 09:53:03;;;;;;;3.50;2.40;;;;;;;22.16;42.97;99921.13;104935;1274;75315;-70
2022/05/09 09:55:30;;;;;;;10.20;3.70;;;;;;;21.89;43.06;99925.85;104962;1272;68581;-70
2022/05/09 09:57:59;;;;;;;3.50;2.70;;;;;;;21.62;43.33;99926.45;104954;1273;61288;-71
2022/05/09 10:00:30;;;;;;;6.00;5.00;;;;;;;21.45;43.27;99918.74;104994;1271;61190;-71
2022/05/09 10:03:21;;;;;;;4.10;3.10;;;;;;;21.34;43.85;99918.50;105051;1274;61229;-71
2022/05/09 10:05:50;;;;;;;3.00;2.40;;;;;;;21.50;43.05;99913.93;104949;1274;75179;-71
2022/05/09 10:08:37;;;;;;;5.00;2.10;;;;;;;21.64;42.36;99916.14;104896;1274;69363;-71
2022/05/09 10:11:03;;;;;;;2.70;2.40;;;;;;;21.74;42.03;99915.06;104888;1273;73401;-70
2022/05/09 10:13:40;;;;;;;4.70;2.50;;;;;;;21.94;41.65;99907.41;104963;1274;61303;-71
2022/05/09 10:16:13;;;;;;;3.80;2.20;;;;;;;22.03;41.36;99909.61;104995;1274;61248;-70
2022/05/09 10:18:42;;;;;;;3.80;2.30;;;;;;;22.25;41.77;99907.34;104823;1274;76404;-71
2022/05/09 10:27:25;;;;;;;5.50;3.00;;;;;;;23.82;42.13;99888.36;105184;1274;61208;-71
2022/05/09 10:29:57;;;;;;;4.50;2.80;;;;;;;24.12;40.92;99890.64;105046;1274;61275;-71
2022/05/09 10:32:34;;;;;;;5.60;2.40;;;;;;;24.21;40.18;99890.98;104977;1272;75382;-70
2022/05/09 10:35:15;;;;;;;3.40;2.20;;;;;;;24.16;39.42;99892.58;104965;1274;69016;-71
2022/05/09 10:37:51;;;;;;;3.30;2.40;;;;;;;23.77;38.51;99893.67;104975;1274;73714;-71
2022/05/09 10:40:27;;;;;;;3.00;2.00;;;;;;;23.17;37.24;99896.30;104964;1274;61408;-72
2022/05/09 10:43:38;;;;;;;3.90;2.20;;;;;;;22.57;37.15;99896.19;104896;1273;61344;-70
2022/05/09 10:46:11;;;;;;;3.20;2.10;;;;;;;22.01;37.81;99897.45;104340;1281;75256;-71
2022/05/09 10:48:49;;;;;;;4.30;2.40;;;;;;;21.76;38.58;99895.85;104460;1281;69207;-72
2022/05/09 10:51:39;;;;;;;4.90;2.70;;;;;;;21.74;39.02;99892.91;104336;1281;73392;-71
2022/05/09 10:54:12;;;;;;;3.20;2.50;;;;;;;21.94;39.60;99897.84;104371;1281;61515;-70
2022/05/09 10:56:45;;;;;;;3.30;2.40;;;;;;;22.18;38.93;99895.27;104394;1282;61367;-71
2022/05/09 10:59:20;;;;;;;5.60;2.30;;;;;;;22.38;38.57;99888.48;104077;1283;75463;-69
2022/05/09 11:01:56;;;;;;;5.10;3.00;;;;;;;22.60;38.87;99886.45;104428;1280;70408;-71
2022/05/09 11:04:24;;;;;;;4.30;2.40;;;;;;;22.93;39.05;99877.62;104321;1281;73304;-69
2022/05/09 11:06:57;;;;;;;5.30;2.40;;;;;;;23.23;39.10;99877.19;104146;1281;61383;-72
2022/05/09 11:09:36;;;;;;;4.70;2.80;;;;;;;23.48;37.88;99871.66;104385;1281;61941;-72
2022/05/09 11:12:21;;;;;;;3.60;2.50;;;;;;;23.52;37.27;99870.48;104332;1281;75336;-71
2022/05/09 11:15:22;;;;;;;4.80;2.50;;;;;;;23.44;36.93;99870.42;104316;1281;70495;-72
2022/05/09 11:18:07;;;;;;;3.40;2.40;;;;;;;23.32;36.57;99869.66;104388;1281;73356;-71
2022/05/09 11:21:01;;;;;;;3.90;3.00;;;;;;;23.11;36.52;99869.34;104636;1274;61296;-71
2022/05/09 11:23:50;;;;;;;6.50;3.00;;;;;;;22.88;36.34;99867.83;104958;1274;61275;-71
2022/05/09 11:26:33;;;;;;;4.50;2.50;;;;;;;22.57;36.37;99867.95;104988;1274;76136;-71
2022/05/09 11:29:18;;;;;;;10.80;4.70;;;;;;;22.39;36.58;99871.17;104862;1274;69390;-71
2022/05/09 11:31:57;;;;;;;5.50;3.50;;;;;;;22.19;35.85;99867.96;104911;1274;73200;-72
2022/05/09 11:34:52;;;;;;;17.80;5.30;;;;;;;21.95;36.64;99868.04;104966;1274;61397;-71
2022/05/09 11:37:31;;;;;;;33.30;10.50;;;;;;;21.85;36.84;99860.00;104958;1272;62206;-72
2022/05/09 11:40:27;;;;;;;5.60;2.20;;;;;;;21.85;37.47;99862.55;104938;1273;74616;-72
2022/05/09 11:43:28;;;;;;;37.00;11.60;;;;;;;21.79;37.27;99862.63;104999;1271;69143;-71
2022/05/09 11:46:05;;;;;;;8.80;4.50;;;;;;;21.76;37.48;99862.69;104903;1271;72278;-71
2022/05/09 11:48:34;;;;;;;11.70;4.00;;;;;;;21.75;37.66;99859.18;105031;1271;61306;-72